Time;durP1;ratioP1;P1;durP2;ratioP2;P2;SDS_P1;SDS_P2;PMS_P1;PMS_P2;Temp;Humidity;BMP_temperature;BMP_pressure;BME280_temperature;BME280_humidity;BME280_pressure;Samples;Min_cycle;Max_cycle;Signal;HPM_P1;HPM_P2
2022/09/01 00:00:00;;;;;;;7.45;4.75;;;15.80;99.90;;;15.03;100.00;98073.94;4985340;28;20427;-68
2022/09/01 00:02:29;;;;;;;7.82;4.43;;;15.80;99.90;;;15.05;100.00;98053.78;4984910;28;20046;-67
2022/09/01 00:04:57;;;;;;;6.90;4.68;;;15.80;99.90;;;15.05;100.00;98056.41;4984883;28;20046;-68
2022/09/01 00:07:28;;;;;;;6.70;4.35;;;15.80;99.90;;;15.14;100.00;98046.34;4982957;28;20054;-67
2022/09/01 00:09:58;;;;;;;5.88;4.07;;;15.80;99.90;;;15.12;100.00;98046.47;4982448;28;20042;-66
2022/09/01 00:12:27;;;;;;;8.20;4.25;;;15.80;99.90;;;15.10;100.00;98044.81;4998117;28;20078;-68
2022/09/01 00:14:54;;;;;;;6.72;4.03;;;15.80;99.90;;;15.07;100.00;98045.84;4987415;28;20050;-68
2022/09/01 00:17:21;;;;;;;5.60;4.10;;;15.80;99.90;;;15.02;100.00;98048.69;4986685;28;20152;-68
2022/09/01 00:19:48;;;;;;;5.32;4.13;;;15.80;99.90;;;14.98;100.00;98056.78;4987907;28;20054;-68
2022/09/01 00:22:15;;;;;;;7.93;4.80;;;15.70;99.90;;;14.87;100.00;98064.34;4984957;28;20540;-68
2022/09/01 00:24:42;;;;;;;6.22;4.80;;;15.60;99.90;;;14.78;100.00;98074.38;4985663;28;20125;-66
2022/09/01 00:27:09;;;;;;;6.30;4.32;;;15.50;99.90;;;14.70;100.00;98070.44;4985428;28;20050;-68
2022/09/01 00:29:36;;;;;;;6.88;4.70;;;15.50;99.90;;;14.59;100.00;98079.66;4982365;28;20169;-68
2022/09/01 00:32:09;;;;;;;6.13;4.80;;;15.40;99.90;;;14.65;100.00;98083.75;4983154;28;20054;-67
2022/09/01 00:34:36;;;;;;;7.95;4.90;;;15.40;99.90;;;14.70;100.00;98070.44;4985470;28;20058;-68
2022/09/01 00:37:03;;;;;;;6.55;4.53;;;15.40;99.90;;;14.58;100.00;98070.16;4980274;28;20058;-68
2022/09/01 00:39:30;;;;;;;6.00;4.65;;;15.40;99.90;;;14.58;100.00;98072.75;4981781;28;20465;-68
2022/09/01 00:41:58;;;;;;;7.82;4.70;;;15.30;99.90;;;14.49;100.00;98074.97;4980316;28;20590;-67
2022/09/01 00:44:26;;;;;;;6.35;4.68;;;15.20;99.90;;;14.37;100.00;98076.44;4983864;28;20043;-68
2022/09/01 00:46:57;;;;;;;6.65;4.80;;;15.10;99.90;;;14.39;100.00;98083.28;4981346;28;20129;-67
2022/09/01 00:49:34;;;;;;;5.50;4.05;;;15.10;99.90;;;14.29;100.00;98082.03;4983709;28;20059;-68
2022/09/01 00:52:16;;;;;;;7.15;5.55;;;15.10;99.90;;;14.33;100.00;98085.34;4976086;28;20094;-67
2022/09/01 00:54:48;;;;;;;8.35;5.53;;;15.00;99.90;;;14.28;100.00;98082.09;4982007;28;20081;-67
2022/09/01 00:57:15;;;;;;;6.03;4.88;;;15.00;99.90;;;14.23;100.00;98090.16;4969526;28;20232;-66
2022/09/01 00:59:56;;;;;;;6.13;4.57;;;15.00;99.90;;;14.25;100.00;98092.69;4980979;28;20166;-68
2022/09/01 01:02:23;;;;;;;9.55;5.50;;;15.00;99.90;;;14.21;100.00;98090.25;4977842;28;20050;-68
2022/09/01 01:04:51;;;;;;;8.82;5.15;;;14.90;99.90;;;14.14;100.00;98095.81;4986701;28;20339;-67
2022/09/01 01:07:21;;;;;;;7.22;5.10;;;14.80;99.90;;;14.16;100.00;98087.03;4983996;28;20054;-67
2022/09/01 01:09:49;;;;;;;9.15;5.45;;;14.80;99.90;;;14.17;100.00;98088.69;5000060;28;20101;-67
2022/09/01 01:12:17;;;;;;;8.07;4.95;;;14.80;99.90;;;14.00;100.00;98089.53;4978711;28;20057;-68
2022/09/01 01:14:49;;;;;;;8.15;5.10;;;14.70;99.90;;;13.99;100.00;98087.81;4980098;28;20046;-68
2022/09/01 01:17:21;;;;;;;7.18;4.50;;;14.80;99.90;;;13.96;100.00;98095.81;4980970;28;20135;-67
2022/09/01 01:23:02;;;;;;;6.65;4.75;;;14.70;99.90;;;14.00;100.00;98099.09;4988257;28;20054;-67
2022/09/01 01:25:52;;;;;;;7.63;4.72;;;14.70;99.90;;;13.94;100.00;98105.47;4988508;28;20090;-68
2022/09/01 01:28:25;;;;;;;8.00;4.60;;;14.60;99.90;;;13.90;100.00;98101.31;4986180;28;20137;-67
2022/09/01 01:31:10;;;;;;;7.40;5.28;;;14.70;99.90;;;13.93;100.00;98097.72;4988821;28;20133;-67
2022/09/01 01:33:43;;;;;;;8.48;4.75;;;14.60;99.90;;;13.78;100.00;98102.75;4987628;28;20121;-68
2022/09/01 01:36:16;;;;;;;;;;;14.60;99.90;;;13.78;100.00;98105.34;4989576;28;20329;-66
2022/09/01 01:38:47;;;;;;;6.80;4.50;;;14.60;99.90;;;13.81;100.00;98107.81;4988871;28;20372;-67
2022/09/01 01:41:18;;;;;;;7.55;4.60;;;14.60;99.90;;;13.77;100.00;98105.41;4987683;28;20397;-67
2022/09/01 01:43:47;;;;;;;6.93;4.80;;;14.60;99.90;;;13.75;100.00;98112.47;4987414;28;20097;-67
2022/09/01 01:46:17;;;;;;;8.65;4.32;;;14.50;99.90;;;13.74;100.00;98116.00;4983944;28;20074;-67
2022/09/01 01:48:46;;;;;;;7.07;4.53;;;14.50;99.90;;;13.73;100.00;98123.00;4943215;28;1211607;-68
2022/09/01 01:51:18;;;;;;;7.65;4.55;;;14.40;99.90;;;13.64;100.00;98122.56;4986738;28;20137;-66
2022/09/01 01:53:51;;;;;;;6.63;4.97;;;14.40;99.90;;;13.58;100.00;98121.09;4988597;28;20080;-67
2022/09/01 01:56:18;;;;;;;;;;;14.30;99.90;;;13.41;100.00;98121.00;4990369;28;20376;-67
2022/09/01 01:58:46;;;;;;;6.90;4.50;;;14.20;99.90;;;13.33;100.00;98127.41;4989281;28;19929;-68
2022/09/01 02:01:13;;;;;;;6.57;4.57;;;14.20;99.90;;;13.34;100.00;98128.25;4986740;28;20057;-67
2022/09/01 02:03:40;;;;;;;8.80;5.10;;;14.10;99.90;;;13.24;100.00;98135.63;4987159;28;20050;-68
2022/09/01 02:06:10;;;;;;;7.30;4.78;;;14.00;99.90;;;13.20;100.00;98149.69;4986121;28;20461;-68
2022/09/01 02:08:39;;;;;;;8.63;4.90;;;14.00;99.90;;;13.10;100.00;98149.25;4983907;28;20058;-68
2022/09/01 02:11:07;;;;;;;10.38;4.63;;;13.90;99.90;;;12.98;100.00;98161.06;5004420;28;20085;-68
2022/09/01 02:13:34;;;;;;;7.68;4.78;;;13.80;99.90;;;12.92;100.00;98161.31;4984107;28;20114;-68
2022/09/01 02:16:12;;;;;;;6.03;5.10;;;13.80;99.90;;;12.90;100.00;98164.91;4983219;28;20208;-67
2022/09/01 02:18:48;;;;;;;6.72;4.85;;;13.70;99.90;;;12.89;100.00;98169.28;4982629;28;20058;-68
2022/09/01 02:21:19;;;;;;;6.88;5.50;;;13.70;99.90;;;12.80;100.00;98174.88;4982728;28;20081;-67
2022/09/01 02:23:58;;;;;;;7.97;5.53;;;13.60;99.90;;;12.70;100.00;98178.75;4986309;28;20050;-67
2022/09/01 02:26:39;;;;;;;8.13;5.25;;;13.60;99.90;;;12.59;100.00;98180.97;4989938;28;20046;-67
2022/09/01 02:29:20;;;;;;;7.60;5.40;;;13.50;99.90;;;12.52;100.00;98189.06;4989401;28;20076;-67
2022/09/01 02:31:52;;;;;;;8.07;5.00;;;13.40;99.90;;;12.46;100.00;98193.66;4987100;28;20667;-68
2022/09/01 02:34:22;;;;;;;6.95;4.88;;;13.30;99.90;;;12.46;100.00;98191.06;4987158;28;20054;-69
2022/09/01 02:36:53;;;;;;;7.18;4.72;;;13.30;99.90;;;12.34;100.00;98197.59;4985990;28;20637;-68
2022/09/01 02:39:32;;;;;;;6.80;5.03;;;13.20;99.90;;;12.31;100.00;98198.53;4984105;28;20137;-67
2022/09/01 02:42:00;;;;;;;7.57;4.60;;;13.20;99.90;;;12.24;100.00;98210.09;4980716;28;20050;-68
2022/09/01 02:44:29;;;;;;;6.85;5.35;;;13.10;99.90;;;12.18;100.00;98212.97;4980957;28;20047;-68
2022/09/01 02:46:57;;;;;;;8.95;4.70;;;13.10;99.90;;;12.14;100.00;98208.78;4981382;28;20050;-68
2022/09/01 02:49:27;;;;;;;6.25;4.93;;;13.00;99.90;;;12.13;100.00;98214.88;4984024;28;20049;-67
2022/09/01 02:52:00;;;;;;;5.95;4.43;;;13.00;99.90;;;12.09;100.00;98229.78;4982506;28;20054;-68
2022/09/01 02:54:30;;;;;;;7.93;5.55;;;13.00;99.90;;;12.02;100.00;98238.72;4983392;28;20058;-68
2022/09/01 02:56:58;;;;;;;5.90;4.30;;;13.00;99.90;;;12.09;100.00;98239.34;4981743;28;20054;-68
2022/09/01 02:59:27;;;;;;;6.95;4.97;;;12.90;99.90;;;12.03;100.00;98236.97;4981532;28;20069;-67
2022/09/01 03:01:56;;;;;;;7.60;4.95;;;12.90;99.90;;;11.99;100.00;98236.22;4987267;28;20133;-68
2022/09/01 03:04:25;;;;;;;7.00;5.15;;;12.80;99.90;;;11.87;100.00;98239.28;4982793;28;20046;-67
2022/09/01 03:06:53;;;;;;;9.93;4.80;;;12.70;99.90;;;11.91;100.00;98235.69;4982088;28;20082;-68
2022/09/01 03:09:21;;;;;;;6.65;4.95;;;12.70;99.90;;;11.92;100.00;98247.78;4976955;28;20509;-68
2022/09/01 03:11:52;;;;;;;8.38;5.20;;;12.80;99.90;;;11.87;100.00;98241.88;4981904;28;20851;-68
2022/09/01 03:14:20;;;;;;;7.40;5.10;;;12.80;99.90;;;11.98;100.00;98249.31;4979811;28;20046;-68
2022/09/01 03:16:47;;;;;;;6.68;4.72;;;12.80;99.90;;;12.01;100.00;98243.97;4979468;28;20051;-68
2022/09/01 03:19:15;;;;;;;6.93;4.68;;;12.80;99.90;;;11.97;100.00;98248.44;4980612;28;20448;-67
2022/09/01 03:21:45;;;;;;;6.57;4.72;;;;;;;11.96;100.00;98248.53;4984093;28;20129;-67
2022/09/01 03:24:15;;;;;;;5.47;4.47;;;;;;;11.92;100.00;98245.16;4985400;28;20058;-68
2022/09/01 03:26:45;;;;;;;8.40;4.05;;;12.80;99.90;;;11.86;100.00;98242.75;4980616;28;20481;-68
2022/09/01 03:29:17;;;;;;;7.53;5.07;;;12.70;99.90;;;11.90;100.00;98250.41;5002716;28;20157;-67
2022/09/01 03:31:44;;;;;;;7.00;4.32;;;12.70;99.90;;;11.94;100.00;98245.97;4985945;28;20416;-68
2022/09/01 03:34:12;;;;;;;4.93;4.00;;;12.70;99.90;;;12.05;100.00;98254.22;4986977;28;20054;-68
2022/09/01 03:36:39;;;;;;;6.20;4.65;;;12.80;99.90;;;12.09;100.00;98257.56;4984934;28;20141;-68
2022/09/01 03:39:08;;;;;;;5.65;4.32;;;12.90;99.90;;;12.15;100.00;98257.31;4986404;28;20073;-67
2022/09/01 03:41:43;;;;;;;6.18;4.28;;;12.90;99.90;;;12.04;100.00;98260.34;4985676;28;20065;-67
2022/09/01 03:44:13;;;;;;;9.27;4.65;;;12.90;99.90;;;11.94;100.00;98256.38;4987159;28;20089;-67
2022/09/01 03:46:42;;;;;;;5.78;4.65;;;12.80;99.90;;;11.90;100.00;98252.19;4985893;28;20070;-68
2022/09/01 03:49:14;;;;;;;7.20;4.55;;;12.70;99.90;;;11.89;100.00;98258.31;4985581;28;20136;-68
2022/09/01 03:51:43;;;;;;;7.00;5.18;;;12.70;99.90;;;11.85;100.00;98264.50;4980296;28;20113;-68
2022/09/01 03:54:11;;;;;;;7.47;5.00;;;12.70;99.90;;;11.75;100.00;98263.13;4984059;28;20145;-68
2022/09/01 03:56:40;;;;;;;6.95;5.40;;;12.60;99.90;;;11.73;100.00;98253.63;4986505;28;20064;-68
2022/09/01 03:59:07;;;;;;;8.43;4.93;;;12.60;99.90;;;11.79;100.00;98259.50;4985979;28;20050;-68
2022/09/01 04:01:42;;;;;;;10.63;5.15;;;12.60;99.90;;;11.76;100.00;98263.06;4985702;28;20142;-67
2022/09/01 04:04:13;;;;;;;6.43;4.75;;;12.50;99.90;;;11.83;100.00;98276.69;4985630;28;20516;-68
2022/09/01 04:06:43;;;;;;;9.55;5.90;;;12.50;99.90;;;11.88;100.00;98267.00;4984095;28;20528;-66
2022/09/01 04:09:10;;;;;;;7.28;4.78;;;12.60;99.90;;;11.99;100.00;98256.19;4984172;28;20054;-68
2022/09/01 04:11:38;;;;;;;5.32;4.55;;;12.60;99.90;;;11.94;100.00;98253.78;4981461;28;20056;-67
2022/09/01 04:14:12;;;;;;;8.40;5.05;;;12.60;99.90;;;11.87;100.00;98258.34;4983060;28;20133;-68
2022/09/01 04:19:25;;;;;;;6.40;5.13;;;12.60;99.90;;;11.95;100.00;98267.63;4979517;28;20494;-68
2022/09/01 04:21:57;;;;;;;7.50;5.85;;;12.60;99.90;;;11.94;100.00;98266.78;4978470;28;20547;-67
2022/09/01 04:24:27;;;;;;;9.33;4.87;;;12.60;99.90;;;11.97;100.00;98264.06;4979868;28;20160;-68
2022/09/01 04:26:57;;;;;;;7.55;4.85;;;12.60;99.90;;;11.98;100.00;98265.75;4979238;28;20311;-68
2022/09/01 04:29:28;;;;;;;6.40;4.65;;;12.60;99.90;;;12.06;100.00;98268.06;4978310;28;20129;-68
2022/09/01 04:32:02;;;;;;;5.95;4.60;;;12.60;99.90;;;12.09;100.00;98263.63;4975690;28;20050;-68
2022/09/01 04:34:36;;;;;;;6.22;4.65;;;12.70;99.90;;;12.09;100.00;98260.16;5001725;28;20492;-68
2022/09/01 04:37:14;;;;;;;5.90;4.70;;;12.70;99.90;;;12.21;100.00;98261.44;4984214;28;20163;-67
2022/09/01 04:39:47;;;;;;;6.53;5.20;;;12.70;99.90;;;12.16;100.00;98256.44;4987316;28;20545;-68
2022/09/01 04:42:22;;;;;;;7.43;4.50;;;12.80;99.90;;;12.20;100.00;98242.41;4983389;28;20051;-68
2022/09/01 04:44:52;;;;;;;6.45;4.20;;;12.80;99.90;;;12.25;100.00;98243.06;4978021;28;20069;-67
2022/09/01 04:47:28;;;;;;;5.88;3.67;;;12.90;99.90;;;12.33;100.00;98230.56;4982088;28;20471;-67
2022/09/01 04:50:12;;;;;;;7.10;4.28;;;12.90;99.90;;;12.30;100.00;98229.84;4980096;28;20051;-67
2022/09/01 04:52:41;;;;;;;9.73;3.92;;;13.00;99.90;;;12.34;100.00;98228.84;4977996;28;20133;-68
2022/09/01 04:55:17;;;;;;;3.90;3.05;;;13.00;99.90;;;12.40;100.00;98230.34;4980793;28;20153;-68
2022/09/01 04:57:48;;;;;;;8.45;3.75;;;13.10;99.90;;;12.45;100.00;98218.84;4978056;28;20134;-68
2022/09/01 05:00:24;;;;;;;4.18;2.50;;;13.10;99.90;;;12.53;100.00;98203.75;4983194;28;20043;-67
2022/09/01 05:02:59;;;;;;;4.85;3.38;;;13.20;99.90;;;12.55;100.00;98203.69;4979684;28;20133;-67
2022/09/01 05:05:27;;;;;;;6.22;3.28;;;13.20;99.90;;;12.35;100.00;98199.28;4980509;28;20341;-67
2022/09/01 05:07:54;;;;;;;7.90;3.95;;;13.30;99.90;;;12.35;100.00;98205.31;4979180;28;20060;-67
2022/09/01 05:10:28;;;;;;;5.40;3.30;;;13.20;99.90;;;12.33;100.00;98204.53;4983104;28;20487;-67
2022/09/01 05:12:56;;;;;;;4.82;3.60;;;13.30;99.90;;;12.34;100.00;98201.03;4977587;28;20050;-68
2022/09/01 05:15:23;;;;;;;4.60;2.88;;;13.30;99.90;;;12.43;100.00;98209.38;4977642;28;20519;-67
2022/09/01 05:17:51;;;;;;;5.20;3.05;;;13.30;99.90;;;12.43;100.00;98211.97;4978750;28;20142;-68
2022/09/01 05:20:19;;;;;;;6.68;3.38;;;13.40;99.90;;;12.51;100.00;98208.16;4977557;28;20077;-68
2022/09/01 05:22:46;;;;;;;4.18;2.72;;;13.40;99.90;;;12.59;100.00;98204.41;4978296;28;20057;-67
2022/09/01 05:25:13;;;;;;;6.72;2.80;;;13.40;99.90;;;12.71;100.00;98203.91;4978488;28;20133;-68
2022/09/01 05:27:51;;;;;;;4.50;2.85;;;13.40;99.90;;;12.76;100.00;98200.19;4981718;28;20121;-67
2022/09/01 05:30:18;;;;;;;7.07;3.42;;;13.50;99.90;;;12.84;100.00;98197.28;4980777;28;20129;-68
2022/09/01 05:32:47;;;;;;;4.57;2.83;;;13.50;99.90;;;12.85;100.00;98196.38;4981381;28;20097;-68
2022/09/01 05:35:15;;;;;;;6.82;2.88;;;13.60;99.90;;;12.92;100.00;98192.59;4982550;28;20054;-67
2022/09/01 05:37:42;;;;;;;6.70;2.67;;;13.60;99.90;;;12.92;100.00;98194.34;4982586;28;20050;-67
2022/09/01 05:40:14;;;;;;;5.15;2.55;;;13.70;99.90;;;12.84;100.00;98186.88;4982847;28;20054;-68
2022/09/01 05:42:43;;;;;;;6.18;3.30;;;13.70;99.90;;;12.98;100.00;98188.91;4984612;28;20401;-68
2022/09/01 05:45:10;;;;;;;3.85;2.97;;;13.70;99.90;;;12.97;100.00;98181.97;4982963;28;20124;-68
2022/09/01 05:47:40;;;;;;;5.70;2.80;;;13.80;99.90;;;13.08;100.00;98178.91;4985658;28;20082;-67
2022/09/01 05:50:09;;;;;;;5.50;2.85;;;13.80;99.90;;;13.06;100.00;98184.19;4984917;28;20138;-67
2022/09/01 05:52:43;;;;;;;7.10;3.20;;;13.90;99.90;;;13.20;100.00;98194.00;4980917;28;20163;-67
2022/09/01 05:55:10;;;;;;;4.85;2.78;;;13.90;99.90;;;13.23;100.00;98190.41;4982939;28;20548;-67
2022/09/01 05:57:38;;;;;;;5.60;3.00;;;13.90;99.90;;;13.32;100.00;98182.22;4983426;28;20089;-68
2022/09/01 06:00:12;;;;;;;7.28;3.00;;;14.00;99.90;;;13.39;100.00;98175.84;4988011;28;20149;-68
2022/09/01 06:02:41;;;;;;;6.20;3.28;;;14.10;99.90;;;13.39;100.00;98174.09;4988310;28;20100;-67
2022/09/01 06:05:10;;;;;;;5.45;2.40;;;14.20;99.90;;;13.52;100.00;98173.53;4989993;28;20137;-68
2022/09/01 06:07:41;;;;;;;4.00;2.78;;;14.20;99.90;;;13.66;100.00;98170.28;4987838;28;20133;-68
2022/09/01 06:10:09;;;;;;;3.47;2.30;;;14.30;99.90;;;13.76;100.00;98167.19;4986558;28;20081;-68
2022/09/01 06:12:37;;;;;;;4.07;2.70;;;14.50;99.90;;;13.88;100.00;98164.94;4984598;28;20046;-67
2022/09/01 06:15:14;;;;;;;5.28;2.85;;;14.50;99.90;;;13.89;100.00;98153.56;5003723;28;20066;-67
2022/09/01 06:17:42;;;;;;;5.93;3.22;;;14.70;99.90;;;14.09;100.00;98158.69;4983346;28;20128;-67
2022/09/01 06:20:10;;;;;;;6.25;2.70;;;14.70;99.90;;;14.16;100.00;98151.44;5005344;28;20082;-68
2022/09/01 06:22:37;;;;;;;6.93;2.72;;;14.80;99.90;;;14.26;100.00;98150.06;4980978;28;20138;-67
2022/09/01 06:25:06;;;;;;;4.72;2.65;;;14.90;99.90;;;14.33;100.00;98143.63;4980556;28;20169;-67
2022/09/01 06:27:37;;;;;;;5.45;2.75;;;15.00;99.90;;;14.41;100.00;98138.91;4982707;28;20043;-67
2022/09/01 06:30:13;;;;;;;4.57;2.63;;;15.10;99.90;;;14.54;100.00;98140.88;4978756;28;20047;-68
2022/09/01 06:32:44;;;;;;;5.18;2.35;;;15.20;99.90;;;14.59;100.00;98137.13;4988059;28;20145;-67
2022/09/01 06:35:14;;;;;;;6.90;2.58;;;15.30;99.90;;;14.66;100.00;98135.06;4980009;28;20138;-68
2022/09/01 06:37:44;;;;;;;4.05;2.50;;;15.40;99.90;;;14.70;100.00;98131.38;4975326;28;20054;-68
2022/09/01 06:40:17;;;;;;;5.10;2.10;;;15.50;99.90;;;14.85;100.00;98133.22;4978462;28;20064;-68
2022/09/01 06:42:46;;;;;;;6.32;2.30;;;15.50;99.90;;;14.89;100.00;98128.69;4977461;28;20469;-67
2022/09/01 06:45:16;;;;;;;7.40;2.63;;;15.70;99.90;;;14.95;100.00;98128.38;5001941;28;20628;-67
2022/09/01 06:47:44;;;;;;;8.00;2.42;;;15.80;99.90;;;15.12;100.00;98131.88;4981223;28;20097;-68
2022/09/01 06:50:14;;;;;;;6.93;3.10;;;15.80;99.90;;;15.14;100.00;98117.78;4979844;28;20062;-67
2022/09/01 06:53:09;;;;;;;8.23;2.63;;;15.90;99.90;;;15.16;100.00;98120.34;4971716;28;20065;-68
2022/09/01 06:55:56;;;;;;;4.35;2.40;;;16.00;99.90;;;15.42;100.00;98122.41;4983183;28;20051;-67
2022/09/01 06:58:24;;;;;;;3.67;2.22;;;16.20;99.90;;;15.51;100.00;98121.09;4981428;28;20512;-67
2022/09/01 07:00:51;;;;;;;5.50;2.40;;;16.20;99.90;;;15.66;100.00;98111.53;4985787;28;20116;-67
2022/09/01 07:03:18;;;;;;;6.10;2.47;;;16.40;99.90;;;15.87;100.00;98110.41;4983913;28;20086;-67
2022/09/01 07:05:50;;;;;;;6.93;3.08;;;16.50;99.90;;;15.80;100.00;98103.81;4984299;28;20046;-68
2022/09/01 07:08:28;;;;;;;4.25;2.45;;;16.60;99.90;;;15.81;100.00;98118.59;4984760;28;20053;-68
2022/09/01 07:10:56;;;;;;;5.88;2.60;;;16.60;99.90;;;15.78;100.00;98112.69;4983273;28;20174;-68
2022/09/01 07:13:44;;;;;;;5.72;3.03;;;16.60;99.90;;;15.78;100.00;98112.69;4998905;28;20647;-68
2022/09/01 07:16:39;;;;;;;5.95;2.80;;;16.70;99.90;;;15.92;100.00;98111.91;4983381;28;20054;-68
2022/09/01 07:19:19;;;;;;;6.88;2.90;;;16.70;99.90;;;15.87;100.00;98112.16;4982436;28;20113;-68
2022/09/01 07:21:46;;;;;;;4.82;3.10;;;16.80;99.90;;;16.08;100.00;98110.13;4981151;28;20440;-67
2022/09/01 07:24:34;;;;;;;3.47;2.40;;;16.90;99.90;;;16.39;100.00;98118.84;4980999;28;20438;-67
2022/09/01 07:27:01;;;;;;;4.40;2.85;;;17.10;99.90;;;16.48;100.00;98116.53;4981808;28;20057;-68
2022/09/01 07:29:38;;;;;;;6.60;3.25;;;17.30;99.90;;;16.67;100.00;98104.97;4984542;28;20054;-68
2022/09/01 07:32:09;;;;;;;10.07;3.13;;;17.50;99.90;;;16.88;100.00;98110.78;4984275;28;20057;-68
2022/09/01 07:34:57;;;;;;;4.72;4.18;;;17.60;99.90;;;16.85;100.00;98111.78;4982883;28;20169;-68
2022/09/01 07:37:26;;;;;;;6.57;3.20;;;17.80;99.90;;;16.97;100.00;98107.63;4982298;28;20051;-67
2022/09/01 07:40:17;;;;;;;8.07;4.75;;;17.80;99.90;;;17.08;100.00;98110.44;4985191;28;20055;-67
2022/09/01 07:43:18;;;;;;;7.72;4.65;;;17.90;99.90;;;16.96;100.00;98107.69;4983592;28;20061;-67
2022/09/01 07:45:47;;;;;;;6.18;4.93;;;17.90;99.90;;;16.96;100.00;98105.91;4983733;28;20057;-68
2022/09/01 07:48:27;;;;;;;7.85;4.70;;;17.90;99.90;;;17.08;100.00;98117.44;4987557;28;20053;-68
2022/09/01 07:51:18;;;;;;;6.28;4.63;;;18.00;99.90;;;17.29;100.00;98112.69;4998692;28;20094;-68
2022/09/01 07:54:03;;;;;;;7.78;4.40;;;18.00;99.90;;;17.39;100.00;98113.78;4985415;28;20081;-67
2022/09/01 07:56:30;;;;;;;7.78;4.60;;;18.20;99.90;;;17.49;100.00;98103.56;4985421;28;20403;-68
2022/09/01 07:59:02;;;;;;;5.63;4.28;;;18.20;99.90;;;17.59;100.00;98103.84;5000930;28;20057;-68
2022/09/01 08:01:29;;;;;;;7.18;4.63;;;18.40;99.90;;;17.68;100.00;98093.59;4984734;28;20121;-67
2022/09/01 08:04:01;;;;;;;5.85;3.90;;;18.50;99.90;;;17.94;100.00;98101.63;4984428;28;20388;-68
2022/09/01 08:06:28;;;;;;;7.63;4.43;;;18.70;99.90;;;17.82;100.00;98086.66;4986396;28;20397;-68
2022/09/01 08:09:07;;;;;;;7.40;4.85;;;18.80;99.90;;;17.70;100.00;98080.38;4984758;28;20047;-68
2022/09/01 08:11:41;;;;;;;7.90;4.50;;;18.80;99.90;;;17.88;100.00;98096.75;4987330;28;20046;-68
2022/09/01 08:14:30;;;;;;;6.72;4.97;;;18.90;99.90;;;18.27;100.00;98108.25;4987590;28;20192;-67
2022/09/01 08:17:00;;;;;;;5.85;3.90;;;19.20;99.90;;;18.46;100.00;98086.88;4982330;28;20050;-67
2022/09/01 08:19:43;;;;;;;5.35;3.80;;;19.50;99.90;;;18.69;100.00;98067.75;4983671;28;20541;-67
2022/09/01 08:22:10;;;;;;;6.20;4.63;;;19.80;99.90;;;18.88;100.00;98074.44;4982581;28;20076;-68
2022/09/01 08:24:37;;;;;;;6.28;4.80;;;20.20;99.90;;;19.13;100.00;98058.63;4982169;28;20150;-68
2022/09/01 08:27:04;;;;;;;7.95;4.35;;;20.30;99.90;;;19.36;100.00;98048.28;4981183;28;20054;-68
2022/09/01 08:29:31;;;;;;;5.95;3.78;;;20.50;99.90;;;19.58;100.00;98026.53;4979722;28;20064;-68
2022/09/01 08:31:59;;;;;;;6.78;4.13;;;20.90;99.90;;;19.25;100.00;98032.41;4979265;28;20050;-68
2022/09/01 08:34:26;;;;;;;5.78;3.65;;;20.60;99.90;;;19.81;100.00;98024.88;4978891;28;20052;-68
2022/09/01 08:36:53;;;;;;;4.82;3.42;;;20.80;99.90;;;19.95;100.00;98001.00;4975282;28;20051;-68
2022/09/01 08:39:20;;;;;;;6.40;3.42;;;21.10;99.90;;;19.79;100.00;98010.97;4977849;28;20081;-68
2022/09/01 08:42:35;;;;;;;8.25;4.00;;;20.90;99.90;;;20.01;100.00;98003.19;4976092;28;20058;-68
2022/09/01 08:45:32;;;;;;;3.88;3.10;;;21.00;99.90;;;19.97;100.00;97999.09;4976275;28;20136;-66
2022/09/01 08:48:14;;;;;;;7.25;3.80;;;20.90;99.90;;;20.21;100.00;97992.97;4977422;28;20160;-69
2022/09/01 08:51:20;;;;;;;8.38;4.40;;;21.00;99.90;;;19.85;100.00;97995.56;4984170;28;20054;-69
2022/09/01 08:54:49;;;;;;;3.67;2.83;;;20.90;99.90;;;20.92;100.00;97990.22;4983346;28;20428;-70
2022/09/01 08:57:19;;;;;;;5.70;3.90;;;21.30;99.90;;;20.53;100.00;97974.69;4986238;28;20137;-68
2022/09/01 08:59:46;;;;;;;7.47;3.80;;;21.50;99.90;;;19.62;100.00;98001.66;4987470;28;20137;-69
2022/09/01 09:02:43;;;;;;;6.85;3.92;;;21.00;99.90;;;19.73;100.00;98028.09;4999510;28;20584;-69
2022/09/01 09:06:15;;;;;;;5.88;4.00;;;21.00;99.90;;;19.73;100.00;98033.34;4985187;28;20054;-69
2022/09/01 09:08:54;;;;;;;6.25;4.28;;;20.80;99.90;;;19.44;100.00;98023.09;4984894;28;20157;-69
2022/09/01 09:11:39;;;;;;;5.18;3.70;;;20.60;99.90;;;19.52;100.00;98029.59;4982538;28;20056;-68
2022/09/01 09:14:37;;;;;;;7.05;3.53;;;20.50;99.90;;;19.98;100.00;98036.81;4986276;28;20100;-70
2022/09/01 09:17:08;;;;;;;7.72;3.38;;;20.60;99.90;;;20.17;100.00;97996.78;4982882;28;20060;-69
2022/09/01 09:19:42;;;;;;;5.32;3.75;;;20.80;99.90;;;20.56;100.00;97990.28;5002130;28;20125;-68
2022/09/01 09:22:14;;;;;;;5.90;3.45;;;21.10;99.90;;;20.14;100.00;97997.84;4982418;28;20050;-69
2022/09/01 09:25:07;;;;;;;7.43;3.63;;;21.00;99.90;;;20.10;100.00;98008.72;4985913;28;20050;-68
2022/09/01 09:27:40;;;;;;;4.70;3.30;;;20.90;99.90;;;20.61;100.00;97982.84;4982652;28;20414;-69
2022/09/01 09:30:22;;;;;;;5.70;3.60;;;21.10;99.90;;;20.25;100.00;97982.06;4985156;28;20137;-69
2022/09/01 09:33:03;;;;;;;5.43;3.03;;;21.20;99.90;;;20.51;100.00;97981.03;4984514;28;20058;-69
2022/09/01 09:35:51;;;;;;;4.85;2.95;;;21.30;99.90;;;20.66;100.00;97974.59;4983105;28;20783;-69
2022/09/01 09:38:29;;;;;;;5.57;3.10;;;21.40;99.90;;;21.18;100.00;97972.31;4985861;28;20072;-68
2022/09/01 09:41:06;;;;;;;6.03;3.40;;;21.60;99.90;;;21.78;100.00;97943.69;4987124;28;20119;-69
2022/09/01 09:44:04;;;;;;;5.63;2.70;;;22.10;99.90;;;21.55;100.00;97908.63;4970415;28;20047;-68
2022/09/01 09:46:30;;;;;;;6.38;3.30;;;22.40;99.90;;;21.45;100.00;97927.03;4989013;28;20100;-70
2022/09/01 09:49:22;;;;;;;5.60;2.75;;;22.30;99.90;;;22.33;100.00;97913.53;4989869;28;20397;-69
2022/09/01 09:52:09;;;;;;;4.63;2.70;;;22.70;99.90;;;22.86;100.00;97891.31;4987379;28;20064;-70
2022/09/01 09:54:40;;;;;;;4.80;3.03;;;23.10;99.90;;;23.93;100.00;97877.38;4987253;28;20047;-70
2022/09/01 09:57:07;;;;;;;5.15;2.17;;;23.70;99.90;;;24.00;100.00;97855.44;5002320;28;20061;-69
2022/09/01 09:59:36;;;;;;;4.15;2.80;;;24.20;99.90;;;23.56;100.00;97847.09;4988079;28;20408;-67
2022/09/01 10:02:37;;;;;;;4.28;2.72;;;24.00;99.90;;;23.66;100.00;97840.97;4987678;28;20061;-67
2022/09/01 10:05:43;;;;;;;4.63;2.40;;;24.10;99.90;;;23.44;100.00;97834.97;4989350;28;20134;-67
2022/09/01 10:08:36;;;;;;;5.75;2.65;;;24.20;99.90;;;23.31;100.00;97848.50;5004773;28;20137;-68
2022/09/01 10:11:06;;;;;;;4.95;2.28;;;24.00;99.90;;;22.79;100.00;97854.94;4987558;28;20504;-69
2022/09/01 10:13:35;;;;;;;3.63;2.17;;;24.00;99.90;;;23.51;100.00;97840.53;4988188;28;20054;-68
2022/09/01 10:16:08;;;;;;;4.57;2.80;;;24.00;99.90;;;22.82;100.00;97836.13;4988034;28;20058;-68
2022/09/01 10:18:43;;;;;;;3.53;2.63;;;23.90;99.90;;;23.16;100.00;97829.53;4987004;28;20436;-68
2022/09/01 10:21:15;;;;;;;4.72;2.83;;;23.90;99.90;;;22.34;100.00;97835.84;4987896;28;20058;-69
2022/09/01 10:23:42;;;;;;;3.67;2.60;;;23.50;99.90;;;21.75;100.00;97865.53;4988261;28;20488;-68
2022/09/01 10:26:18;;;;;;;3.92;2.70;;;22.90;99.90;;;21.14;100.00;97876.66;4986232;28;20051;-68
2022/09/01 10:29:00;;;;;;;4.75;3.00;;;22.40;99.90;;;20.64;100.00;97892.09;4987903;28;20821;-67
2022/09/01 10:31:28;;;;;;;5.30;2.72;;;21.90;99.90;;;20.87;100.00;97895.59;4988837;28;20050;-67
2022/09/01 10:34:03;;;;;;;3.70;2.70;;;21.90;99.90;;;20.58;100.00;97900.50;5003868;28;20139;-67
2022/09/01 10:36:34;;;;;;;4.45;2.40;;;21.70;99.90;;;22.09;100.00;97871.44;5002770;28;20051;-68
2022/09/01 10:39:04;;;;;;;4.35;2.92;;;22.10;99.90;;;21.42;100.00;97870.03;4982881;28;20065;-69
2022/09/01 10:41:51;;;;;;;5.82;3.05;;;22.20;99.90;;;20.71;100.00;97871.34;4994881;28;20507;-67
2022/09/01 10:44:32;;;;;;;3.70;2.60;;;21.90;99.90;;;20.79;100.00;97890.06;4979725;28;20081;-68